sensor_id;sensor_type;location;lat;lon;timestamp;temperature;humidity
2621;DHT22;1320;48.128;11.592;2024-01-15T00:01:56;2.20;99.90
2621;DHT22;1320;48.128;11.592;2024-01-15T00:04:21;2.20;99.90
2621;DHT22;1320;48.128;11.592;2024-01-15T00:06:47;2.20;99.90
2621;DHT22;1320;48.128;11.592;2024-01-15T00:09:13;2.30;99.90
2621;DHT22;1320;48.128;11.592;2024-01-15T00:11:38;2.20;99.90
2621;DHT22;1320;48.128;11.592;2024-01-15T00:14:04;2.30;99.90
2621;DHT22;1320;48.128;11.592;2024-01-15T00:16:30;2.40;99.90
2621;DHT22;1320;48.128;11.592;2024-01-15T00:21:21;2.40;99.90
2621;DHT22;1320;48.128;11.592;2024-01-15T00:23:47;2.50;99.90
2621;DHT22;1320;48.128;11.592;2024-01-15T00:26:13;2.50;99.90
2621;DHT22;1320;48.128;11.592;2024-01-15T00:28:38;2.40;99.90
2621;DHT22;1320;48.128;11.592;2024-01-15T00:31:05;2.40;99.90
2621;DHT22;1320;48.128;11.592;2024-01-15T00:33:31;2.50;99.90
2621;DHT22;1320;48.128;11.592;2024-01-15T00:35:57;2.50;99.90
2621;DHT22;1320;48.128;11.592;2024-01-15T00:38:22;2.40;99.90
2621;DHT22;1320;48.128;11.592;2024-01-15T00:40:48;2.40;99.90
2621;DHT22;1320;48.128;11.592;2024-01-15T00:43:14;2.50;99.90
2621;DHT22;1320;48.128;11.592;2024-01-15T00:45:40;2.50;99.90
2621;DHT22;1320;48.128;11.592;2024-01-15T00:48:07;2.50;99.90
2621;DHT22;1320;48.128;11.592;2024-01-15T00:52:59;2.50;99.90
2621;DHT22;1320;48.128;11.592;2024-01-15T00:55:24;2.40;99.90
2621;DHT22;1320;48.128;11.592;2024-01-15T00:57:50;2.80;99.90
2621;DHT22;1320;48.128;11.592;2024-01-15T01:00:16;2.30;99.90
2621;DHT22;1320;48.128;11.592;2024-01-15T01:02:42;2.30;99.90
2621;DHT22;1320;48.128;11.592;2024-01-15T01:05:07;2.30;99.90
2621;DHT22;1320;48.128;11.592;2024-01-15T01:07:33;2.30;99.90
2621;DHT22;1320;48.128;11.592;2024-01-15T01:09:58;2.30;99.90
2621;DHT22;1320;48.128;11.592;2024-01-15T01:12:24;2.30;99.90
2621;DHT22;1320;48.128;11.592;2024-01-15T01:14:50;1.90;99.90
2621;DHT22;1320;48.128;11.592;2024-01-15T01:17:15;2.30;99.90
2621;DHT22;1320;48.128;11.592;2024-01-15T01:19:41;1.90;99.90
2621;DHT22;1320;48.128;11.592;2024-01-15T01:22:07;2.10;99.90
2621;DHT22;1320;48.128;11.592;2024-01-15T01:24:33;1.90;99.90
2621;DHT22;1320;48.128;11.592;2024-01-15T01:26:59;1.80;99.90
2621;DHT22;1320;48.128;11.592;2024-01-15T01:29:24;1.70;99.90
2621;DHT22;1320;48.128;11.592;2024-01-15T01:31:51;1.60;99.90
2621;DHT22;1320;48.128;11.592;2024-01-15T01:34:17;1.50;99.90
2621;DHT22;1320;48.128;11.592;2024-01-15T01:36:43;1.50;99.90
2621;DHT22;1320;48.128;11.592;2024-01-15T01:39:09;1.50;99.90
2621;DHT22;1320;48.128;11.592;2024-01-15T01:41:35;1.40;99.90
2621;DHT22;1320;48.128;11.592;2024-01-15T01:44:01;1.30;99.90
2621;DHT22;1320;48.128;11.592;2024-01-15T01:46:27;1.20;99.90
2621;DHT22;1320;48.128;11.592;2024-01-15T01:48:55;1.20;99.90
2621;DHT22;1320;48.128;11.592;2024-01-15T01:51:23;1.10;99.90
2621;DHT22;1320;48.128;11.592;2024-01-15T01:53:50;1.10;99.90
2621;DHT22;1320;48.128;11.592;2024-01-15T01:56:16;1.10;99.90
2621;DHT22;1320;48.128;11.592;2024-01-15T01:58:44;1.00;99.90
2621;DHT22;1320;48.128;11.592;2024-01-15T02:01:11;1.10;99.90
2621;DHT22;1320;48.128;11.592;2024-01-15T02:03:38;1.10;99.90
2621;DHT22;1320;48.128;11.592;2024-01-15T02:06:05;1.10;99.90
2621;DHT22;1320;48.128;11.592;2024-01-15T02:08:31;1.00;99.90
2621;DHT22;1320;48.128;11.592;2024-01-15T02:10:57;1.00;99.90
2621;DHT22;1320;48.128;11.592;2024-01-15T02:13:23;0.90;99.90
2621;DHT22;1320;48.128;11.592;2024-01-15T02:15:48;1.00;99.90
2621;DHT22;1320;48.128;11.592;2024-01-15T02:18:14;1.00;99.90
2621;DHT22;1320;48.128;11.592;2024-01-15T02:20:40;1.00;99.90
2621;DHT22;1320;48.128;11.592;2024-01-15T02:23:10;1.00;99.90
2621;DHT22;1320;48.128;11.592;2024-01-15T02:25:43;1.00;99.90
2621;DHT22;1320;48.128;11.592;2024-01-15T02:28:14;1.00;99.90
2621;DHT22;1320;48.128;11.592;2024-01-15T02:30:41;1.00;99.90
2621;DHT22;1320;48.128;11.592;2024-01-15T02:33:11;1.10;99.90
2621;DHT22;1320;48.128;11.592;2024-01-15T02:35:37;1.00;99.90
2621;DHT22;1320;48.128;11.592;2024-01-15T02:38:03;1.10;99.90
2621;DHT22;1320;48.128;11.592;2024-01-15T02:40:30;1.10;99.90
2621;DHT22;1320;48.128;11.592;2024-01-15T02:42:56;1.00;99.90
2621;DHT22;1320;48.128;11.592;2024-01-15T02:45:22;1.00;99.90
2621;DHT22;1320;48.128;11.592;2024-01-15T02:47:48;1.00;99.90
2621;DHT22;1320;48.128;11.592;2024-01-15T02:50:14;1.00;99.90
2621;DHT22;1320;48.128;11.592;2024-01-15T02:52:40;1.00;99.90
2621;DHT22;1320;48.128;11.592;2024-01-15T02:55:06;1.00;99.90
2621;DHT22;1320;48.128;11.592;2024-01-15T02:57:32;1.00;99.90
2621;DHT22;1320;48.128;11.592;2024-01-15T02:59:58;0.90;99.90
2621;DHT22;1320;48.128;11.592;2024-01-15T03:02:24;0.90;99.90
2621;DHT22;1320;48.128;11.592;2024-01-15T03:04:49;0.80;99.90
2621;DHT22;1320;48.128;11.592;2024-01-15T03:07:15;0.80;99.90
2621;DHT22;1320;48.128;11.592;2024-01-15T03:09:41;0.80;99.90
2621;DHT22;1320;48.128;11.592;2024-01-15T03:12:07;0.70;99.90
2621;DHT22;1320;48.128;11.592;2024-01-15T03:14:32;0.70;99.90
2621;DHT22;1320;48.128;11.592;2024-01-15T03:16:58;0.70;99.90
2621;DHT22;1320;48.128;11.592;2024-01-15T03:19:24;0.60;99.90
2621;DHT22;1320;48.128;11.592;2024-01-15T03:21:49;0.60;99.90
2621;DHT22;1320;48.128;11.592;2024-01-15T03:24:15;0.60;99.90
2621;DHT22;1320;48.128;11.592;2024-01-15T03:26:40;0.60;99.90
2621;DHT22;1320;48.128;11.592;2024-01-15T03:29:07;0.60;99.90
2621;DHT22;1320;48.128;11.592;2024-01-15T03:31:33;0.70;99.90
2621;DHT22;1320;48.128;11.592;2024-01-15T03:33:58;0.70;99.90
2621;DHT22;1320;48.128;11.592;2024-01-15T03:36:24;0.70;99.90
2621;DHT22;1320;48.128;11.592;2024-01-15T03:38:50;0.80;99.90
2621;DHT22;1320;48.128;11.592;2024-01-15T03:41:15;0.70;99.90
2621;DHT22;1320;48.128;11.592;2024-01-15T03:43:41;0.80;99.90
2621;DHT22;1320;48.128;11.592;2024-01-15T03:46:07;0.80;99.90
2621;DHT22;1320;48.128;11.592;2024-01-15T03:48:33;0.80;99.90
2621;DHT22;1320;48.128;11.592;2024-01-15T03:50:58;0.80;99.90
2621;DHT22;1320;48.128;11.592;2024-01-15T03:53:24;0.80;99.90
2621;DHT22;1320;48.128;11.592;2024-01-15T03:55:50;0.80;99.90
2621;DHT22;1320;48.128;11.592;2024-01-15T03:58:16;0.80;99.90
2621;DHT22;1320;48.128;11.592;2024-01-15T04:00:42;0.80;99.90
2621;DHT22;1320;48.128;11.592;2024-01-15T04:03:08;0.80;99.90
2621;DHT22;1320;48.128;11.592;2024-01-15T04:05:33;0.80;99.90
2621;DHT22;1320;48.128;11.592;2024-01-15T04:07:59;0.90;99.90
2621;DHT22;1320;48.128;11.592;2024-01-15T04:10:25;0.90;99.90
2621;DHT22;1320;48.128;11.592;2024-01-15T04:12:51;0.90;99.90
2621;DHT22;1320;48.128;11.592;2024-01-15T04:15:16;0.80;99.90
2621;DHT22;1320;48.128;11.592;2024-01-15T04:17:42;0.80;99.90
2621;DHT22;1320;48.128;11.592;2024-01-15T04:20:08;0.90;99.90
2621;DHT22;1320;48.128;11.592;2024-01-15T04:22:35;0.90;99.90
2621;DHT22;1320;48.128;11.592;2024-01-15T04:25:01;0.90;99.90
2621;DHT22;1320;48.128;11.592;2024-01-15T04:27:27;0.90;99.90
2621;DHT22;1320;48.128;11.592;2024-01-15T04:29:53;0.90;99.90
2621;DHT22;1320;48.128;11.592;2024-01-15T04:32:19;0.90;99.90
2621;DHT22;1320;48.128;11.592;2024-01-15T04:34:45;0.90;99.90
2621;DHT22;1320;48.128;11.592;2024-01-15T04:37:10;0.80;99.90
2621;DHT22;1320;48.128;11.592;2024-01-15T04:39:36;0.80;99.90
2621;DHT22;1320;48.128;11.592;2024-01-15T04:42:03;0.80;99.90
2621;DHT22;1320;48.128;11.592;2024-01-15T04:44:29;0.90;99.90
2621;DHT22;1320;48.128;11.592;2024-01-15T04:46:54;0.80;99.90
2621;DHT22;1320;48.128;11.592;2024-01-15T04:49:20;0.80;99.90
2621;DHT22;1320;48.128;11.592;2024-01-15T04:51:46;0.80;99.90
2621;DHT22;1320;48.128;11.592;2024-01-15T04:54:11;0.90;99.90
2621;DHT22;1320;48.128;11.592;2024-01-15T04:56:37;1.00;99.90
2621;DHT22;1320;48.128;11.592;2024-01-15T04:59:03;1.00;99.90
2621;DHT22;1320;48.128;11.592;2024-01-15T05:01:32;1.00;99.90
2621;DHT22;1320;48.128;11.592;2024-01-15T05:03:58;1.00;99.90
2621;DHT22;1320;48.128;11.592;2024-01-15T05:06:24;0.90;99.90
2621;DHT22;1320;48.128;11.592;2024-01-15T05:08:50;0.80;99.90
2621;DHT22;1320;48.128;11.592;2024-01-15T05:11:16;0.80;99.90
2621;DHT22;1320;48.128;11.592;2024-01-15T05:13:41;0.80;99.90
2621;DHT22;1320;48.128;11.592;2024-01-15T05:16:07;0.90;99.90
2621;DHT22;1320;48.128;11.592;2024-01-15T05:18:33;0.90;99.90
2621;DHT22;1320;48.128;11.592;2024-01-15T05:20:59;0.80;99.90
2621;DHT22;1320;48.128;11.592;2024-01-15T05:23:24;0.80;99.90
2621;DHT22;1320;48.128;11.592;2024-01-15T05:25:50;0.90;99.90
2621;DHT22;1320;48.128;11.592;2024-01-15T05:28:16;0.90;99.90
2621;DHT22;1320;48.128;11.592;2024-01-15T05:30:41;0.90;99.90
2621;DHT22;1320;48.128;11.592;2024-01-15T05:33:07;1.00;99.90
2621;DHT22;1320;48.128;11.592;2024-01-15T05:35:34;0.90;99.90
2621;DHT22;1320;48.128;11.592;2024-01-15T05:37:59;0.90;99.90
2621;DHT22;1320;48.128;11.592;2024-01-15T05:40:25;0.90;99.90
2621;DHT22;1320;48.128;11.592;2024-01-15T05:42:51;0.90;99.90
2621;DHT22;1320;48.128;11.592;2024-01-15T05:45:16;0.90;99.90
2621;DHT22;1320;48.128;11.592;2024-01-15T05:47:42;0.80;99.90
2621;DHT22;1320;48.128;11.592;2024-01-15T05:50:09;0.70;99.90
2621;DHT22;1320;48.128;11.592;2024-01-15T05:52:35;0.70;99.90
2621;DHT22;1320;48.128;11.592;2024-01-15T05:55:01;0.60;99.90
2621;DHT22;1320;48.128;11.592;2024-01-15T05:57:27;0.60;99.90
2621;DHT22;1320;48.128;11.592;2024-01-15T05:59:53;0.60;99.90
2621;DHT22;1320;48.128;11.592;2024-01-15T06:02:19;0.70;99.90
2621;DHT22;1320;48.128;11.592;2024-01-15T06:04:45;0.70;99.90
2621;DHT22;1320;48.128;11.592;2024-01-15T06:07:11;0.70;99.90
2621;DHT22;1320;48.128;11.592;2024-01-15T06:09:36;0.70;99.90
2621;DHT22;1320;48.128;11.592;2024-01-15T06:12:04;0.70;99.90
2621;DHT22;1320;48.128;11.592;2024-01-15T06:14:30;0.70;99.90
2621;DHT22;1320;48.128;11.592;2024-01-15T06:16:55;0.80;99.90
2621;DHT22;1320;48.128;11.592;2024-01-15T06:19:21;0.80;99.90
2621;DHT22;1320;48.128;11.592;2024-01-15T06:21:47;0.80;99.90
2621;DHT22;1320;48.128;11.592;2024-01-15T06:24:12;0.80;99.90
2621;DHT22;1320;48.128;11.592;2024-01-15T06:26:39;0.80;99.90
2621;DHT22;1320;48.128;11.592;2024-01-15T06:29:04;0.80;99.90
2621;DHT22;1320;48.128;11.592;2024-01-15T06:31:30;0.90;99.90
2621;DHT22;1320;48.128;11.592;2024-01-15T06:33:56;0.90;99.90
2621;DHT22;1320;48.128;11.592;2024-01-15T06:36:21;0.90;99.90
2621;DHT22;1320;48.128;11.592;2024-01-15T06:38:47;0.90;99.90
2621;DHT22;1320;48.128;11.592;2024-01-15T06:41:13;0.80;99.90
2621;DHT22;1320;48.128;11.592;2024-01-15T06:43:39;0.80;99.90
2621;DHT22;1320;48.128;11.592;2024-01-15T06:46:04;0.80;99.90
2621;DHT22;1320;48.128;11.592;2024-01-15T06:48:30;0.90;99.90
2621;DHT22;1320;48.128;11.592;2024-01-15T06:50:56;0.90;99.90
2621;DHT22;1320;48.128;11.592;2024-01-15T06:53:22;0.90;99.90
2621;DHT22;1320;48.128;11.592;2024-01-15T06:55:48;1.00;99.90
2621;DHT22;1320;48.128;11.592;2024-01-15T06:58:14;1.00;99.90
2621;DHT22;1320;48.128;11.592;2024-01-15T07:00:40;1.10;99.90
2621;DHT22;1320;48.128;11.592;2024-01-15T07:03:06;1.10;99.90
2621;DHT22;1320;48.128;11.592;2024-01-15T07:05:32;1.10;99.90
2621;DHT22;1320;48.128;11.592;2024-01-15T07:07:58;1.10;99.90
2621;DHT22;1320;48.128;11.592;2024-01-15T07:10:23;1.20;99.90
2621;DHT22;1320;48.128;11.592;2024-01-15T07:12:49;1.30;99.90
2621;DHT22;1320;48.128;11.592;2024-01-15T07:15:15;1.30;99.90
2621;DHT22;1320;48.128;11.592;2024-01-15T07:17:41;1.30;99.90
2621;DHT22;1320;48.128;11.592;2024-01-15T07:20:08;1.30;99.90
2621;DHT22;1320;48.128;11.592;2024-01-15T07:22:37;1.30;99.90
2621;DHT22;1320;48.128;11.592;2024-01-15T07:25:04;1.40;99.90
2621;DHT22;1320;48.128;11.592;2024-01-15T07:27:33;1.40;99.90
2621;DHT22;1320;48.128;11.592;2024-01-15T07:29:58;1.40;99.90
2621;DHT22;1320;48.128;11.592;2024-01-15T07:32:24;1.40;99.90
2621;DHT22;1320;48.128;11.592;2024-01-15T07:34:50;1.30;99.90
2621;DHT22;1320;48.128;11.592;2024-01-15T07:37:15;1.30;99.90
2621;DHT22;1320;48.128;11.592;2024-01-15T07:39:41;1.20;99.90
2621;DHT22;1320;48.128;11.592;2024-01-15T07:42:07;1.20;99.90
2621;DHT22;1320;48.128;11.592;2024-01-15T07:44:33;1.10;99.90
2621;DHT22;1320;48.128;11.592;2024-01-15T07:46:58;1.20;99.90
2621;DHT22;1320;48.128;11.592;2024-01-15T07:49:24;1.20;99.90
2621;DHT22;1320;48.128;11.592;2024-01-15T07:51:50;1.10;99.90
2621;DHT22;1320;48.128;11.592;2024-01-15T07:54:16;1.00;99.90
2621;DHT22;1320;48.128;11.592;2024-01-15T07:56:57;1.10;99.90
2621;DHT22;1320;48.128;11.592;2024-01-15T07:59:23;1.10;99.90
2621;DHT22;1320;48.128;11.592;2024-01-15T08:01:49;1.10;99.90
2621;DHT22;1320;48.128;11.592;2024-01-15T08:04:15;1.20;99.90
2621;DHT22;1320;48.128;11.592;2024-01-15T08:06:41;1.20;99.90
2621;DHT22;1320;48.128;11.592;2024-01-15T08:09:06;1.20;99.90
2621;DHT22;1320;48.128;11.592;2024-01-15T08:11:34;1.20;99.90
2621;DHT22;1320;48.128;11.592;2024-01-15T08:14:00;1.20;99.90
2621;DHT22;1320;48.128;11.592;2024-01-15T08:16:26;1.20;99.90
2621;DHT22;1320;48.128;11.592;2024-01-15T08:18:53;1.20;99.90
2621;DHT22;1320;48.128;11.592;2024-01-15T08:21:18;1.20;99.90
2621;DHT22;1320;48.128;11.592;2024-01-15T08:23:44;1.20;99.90
2621;DHT22;1320;48.128;11.592;2024-01-15T08:26:10;1.20;99.90
2621;DHT22;1320;48.128;11.592;2024-01-15T08:28:36;1.20;99.90
2621;DHT22;1320;48.128;11.592;2024-01-15T08:31:02;1.20;99.90
2621;DHT22;1320;48.128;11.592;2024-01-15T08:33:28;1.20;99.90
2621;DHT22;1320;48.128;11.592;2024-01-15T08:35:54;1.20;99.90
2621;DHT22;1320;48.128;11.592;2024-01-15T08:38:20;1.20;99.90
2621;DHT22;1320;48.128;11.592;2024-01-15T08:40:46;1.20;99.90
2621;DHT22;1320;48.128;11.592;2024-01-15T08:43:12;1.10;99.90
2621;DHT22;1320;48.128;11.592;2024-01-15T08:45:38;1.10;99.90
2621;DHT22;1320;48.128;11.592;2024-01-15T08:48:04;1.10;99.90
2621;DHT22;1320;48.128;11.592;2024-01-15T08:50:32;1.10;99.90
2621;DHT22;1320;48.128;11.592;2024-01-15T08:52:58;1.10;99.90
2621;DHT22;1320;48.128;11.592;2024-01-15T08:57:51;1.20;99.90
2621;DHT22;1320;48.128;11.592;2024-01-15T09:00:18;1.30;99.90
2621;DHT22;1320;48.128;11.592;2024-01-15T09:02:46;1.30;99.90
2621;DHT22;1320;48.128;11.592;2024-01-15T09:05:12;1.40;99.90
2621;DHT22;1320;48.128;11.592;2024-01-15T09:07:38;1.30;99.90
2621;DHT22;1320;48.128;11.592;2024-01-15T09:10:04;1.40;99.90
2621;DHT22;1320;48.128;11.592;2024-01-15T09:12:30;1.50;99.90
2621;DHT22;1320;48.128;11.592;2024-01-15T09:14:55;1.50;99.90
2621;DHT22;1320;48.128;11.592;2024-01-15T09:17:21;1.50;99.90
2621;DHT22;1320;48.128;11.592;2024-01-15T09:19:49;1.50;99.90
2621;DHT22;1320;48.128;11.592;2024-01-15T09:22:15;1.60;99.90
2621;DHT22;1320;48.128;11.592;2024-01-15T09:24:46;1.60;99.90
2621;DHT22;1320;48.128;11.592;2024-01-15T09:27:13;1.60;99.90
2621;DHT22;1320;48.128;11.592;2024-01-15T09:29:39;1.70;99.90
2621;DHT22;1320;48.128;11.592;2024-01-15T09:32:07;1.60;99.90
2621;DHT22;1320;48.128;11.592;2024-01-15T09:34:36;1.60;99.90
2621;DHT22;1320;48.128;11.592;2024-01-15T09:37:02;1.70;99.90
2621;DHT22;1320;48.128;11.592;2024-01-15T09:39:28;1.70;99.90
2621;DHT22;1320;48.128;11.592;2024-01-15T09:41:54;1.80;99.90
2621;DHT22;1320;48.128;11.592;2024-01-15T09:44:21;1.80;99.90
2621;DHT22;1320;48.128;11.592;2024-01-15T09:46:47;1.80;99.90
2621;DHT22;1320;48.128;11.592;2024-01-15T09:49:16;1.80;99.90
2621;DHT22;1320;48.128;11.592;2024-01-15T09:51:42;1.70;99.90
2621;DHT22;1320;48.128;11.592;2024-01-15T09:54:08;2.00;99.90
2621;DHT22;1320;48.128;11.592;2024-01-15T09:56:34;2.00;99.90
2621;DHT22;1320;48.128;11.592;2024-01-15T09:59:01;2.10;99.90
2621;DHT22;1320;48.128;11.592;2024-01-15T10:01:28;2.10;99.90
2621;DHT22;1320;48.128;11.592;2024-01-15T10:03:54;2.10;99.90
2621;DHT22;1320;48.128;11.592;2024-01-15T10:06:21;2.10;99.90
2621;DHT22;1320;48.128;11.592;2024-01-15T10:08:49;2.10;99.90
2621;DHT22;1320;48.128;11.592;2024-01-15T10:11:15;2.20;99.90
2621;DHT22;1320;48.128;11.592;2024-01-15T10:13:45;2.20;99.90
2621;DHT22;1320;48.128;11.592;2024-01-15T10:16:11;2.30;99.90
2621;DHT22;1320;48.128;11.592;2024-01-15T10:21:06;2.30;99.90
2621;DHT22;1320;48.128;11.592;2024-01-15T10:26:00;2.50;99.90
2621;DHT22;1320;48.128;11.592;2024-01-15T10:40:56;2.30;99.90
2621;DHT22;1320;48.128;11.592;2024-01-15T10:43:23;2.40;99.90
2621;DHT22;1320;48.128;11.592;2024-01-15T10:45:50;2.30;99.90
2621;DHT22;1320;48.128;11.592;2024-01-15T10:48:17;2.20;99.90
2621;DHT22;1320;48.128;11.592;2024-01-15T10:53:13;2.00;99.90
2621;DHT22;1320;48.128;11.592;2024-01-15T10:55:41;2.00;99.90
2621;DHT22;1320;48.128;11.592;2024-01-15T10:58:08;2.10;99.90
2621;DHT22;1320;48.128;11.592;2024-01-15T11:00:35;2.10;99.90
2621;DHT22;1320;48.128;11.592;2024-01-15T11:03:04;2.10;99.90
2621;DHT22;1320;48.128;11.592;2024-01-15T11:08:09;2.20;99.90
2621;DHT22;1320;48.128;11.592;2024-01-15T11:10:43;2.10;99.90
2621;DHT22;1320;48.128;11.592;2024-01-15T11:13:18;2.10;99.90
2621;DHT22;1320;48.128;11.592;2024-01-15T11:21:21;2.40;99.90
2621;DHT22;1320;48.128;11.592;2024-01-15T11:24:01;2.50;99.90
2621;DHT22;1320;48.128;11.592;2024-01-15T11:28:56;2.60;99.90
2621;DHT22;1320;48.128;11.592;2024-01-15T11:31:29;2.60;99.90
2621;DHT22;1320;48.128;11.592;2024-01-15T11:41:56;2.90;99.90
2621;DHT22;1320;48.128;11.592;2024-01-15T11:44:22;2.90;99.90
2621;DHT22;1320;48.128;11.592;2024-01-15T12:39:12;3.20;99.90
2621;DHT22;1320;48.128;11.592;2024-01-15T12:44:05;3.40;99.90
2621;DHT22;1320;48.128;11.592;2024-01-15T12:46:31;3.60;99.90
2621;DHT22;1320;48.128;11.592;2024-01-15T12:48:57;3.60;99.90
2621;DHT22;1320;48.128;11.592;2024-01-15T12:51:26;3.70;99.90
2621;DHT22;1320;48.128;11.592;2024-01-15T12:53:53;3.70;99.90
2621;DHT22;1320;48.128;11.592;2024-01-15T12:56:18;3.70;99.90
2621;DHT22;1320;48.128;11.592;2024-01-15T12:58:44;3.70;99.90
2621;DHT22;1320;48.128;11.592;2024-01-15T13:06:03;4.70;99.90
2621;DHT22;1320;48.128;11.592;2024-01-15T13:08:29;4.70;99.90
2621;DHT22;1320;48.128;11.592;2024-01-15T13:13:27;5.40;99.90
2621;DHT22;1320;48.128;11.592;2024-01-15T13:15:52;5.70;99.90
2621;DHT22;1320;48.128;11.592;2024-01-15T13:18:18;6.00;99.90
2621;DHT22;1320;48.128;11.592;2024-01-15T13:20:44;6.20;99.90
2621;DHT22;1320;48.128;11.592;2024-01-15T13:23:11;6.10;99.90
2621;DHT22;1320;48.128;11.592;2024-01-15T13:25:37;5.90;99.90
2621;DHT22;1320;48.128;11.592;2024-01-15T13:28:04;5.50;99.90
2621;DHT22;1320;48.128;11.592;2024-01-15T13:30:36;5.20;99.90
2621;DHT22;1320;48.128;11.592;2024-01-15T13:33:03;5.00;99.90
2621;DHT22;1320;48.128;11.592;2024-01-15T13:35:30;4.80;99.90
2621;DHT22;1320;48.128;11.592;2024-01-15T13:37:56;4.70;99.90
2621;DHT22;1320;48.128;11.592;2024-01-15T13:40:21;4.50;99.90
2621;DHT22;1320;48.128;11.592;2024-01-15T13:42:47;4.40;99.90
2621;DHT22;1320;48.128;11.592;2024-01-15T13:45:14;4.20;99.90
2621;DHT22;1320;48.128;11.592;2024-01-15T13:47:40;4.10;99.90
2621;DHT22;1320;48.128;11.592;2024-01-15T13:50:07;3.90;99.90
2621;DHT22;1320;48.128;11.592;2024-01-15T13:52:34;3.80;99.90
2621;DHT22;1320;48.128;11.592;2024-01-15T13:54:59;3.70;99.90
2621;DHT22;1320;48.128;11.592;2024-01-15T13:57:25;3.60;99.90
2621;DHT22;1320;48.128;11.592;2024-01-15T13:59:51;3.50;99.90
2621;DHT22;1320;48.128;11.592;2024-01-15T14:02:16;3.40;99.90
2621;DHT22;1320;48.128;11.592;2024-01-15T14:04:42;3.40;99.90
2621;DHT22;1320;48.128;11.592;2024-01-15T14:07:08;3.30;99.90
2621;DHT22;1320;48.128;11.592;2024-01-15T14:09:34;3.30;99.90
2621;DHT22;1320;48.128;11.592;2024-01-15T14:11:59;3.40;99.90
2621;DHT22;1320;48.128;11.592;2024-01-15T14:14:25;3.40;99.90
2621;DHT22;1320;48.128;11.592;2024-01-15T14:16:51;3.30;99.90
2621;DHT22;1320;48.128;11.592;2024-01-15T14:19:17;3.20;99.90
2621;DHT22;1320;48.128;11.592;2024-01-15T14:21:43;3.20;99.90
2621;DHT22;1320;48.128;11.592;2024-01-15T14:24:09;3.10;99.90
2621;DHT22;1320;48.128;11.592;2024-01-15T14:26:34;3.10;99.90
2621;DHT22;1320;48.128;11.592;2024-01-15T14:29:00;3.10;99.90
2621;DHT22;1320;48.128;11.592;2024-01-15T14:31:26;3.00;99.90
2621;DHT22;1320;48.128;11.592;2024-01-15T14:33:53;3.00;99.90
2621;DHT22;1320;48.128;11.592;2024-01-15T14:36:20;3.00;99.90
2621;DHT22;1320;48.128;11.592;2024-01-15T14:38:46;3.00;99.90
2621;DHT22;1320;48.128;11.592;2024-01-15T14:41:12;2.90;99.90
2621;DHT22;1320;48.128;11.592;2024-01-15T14:43:37;3.00;99.90
2621;DHT22;1320;48.128;11.592;2024-01-15T14:46:03;2.90;99.90
2621;DHT22;1320;48.128;11.592;2024-01-15T14:48:29;2.90;99.90
2621;DHT22;1320;48.128;11.592;2024-01-15T14:50:55;2.80;99.90
2621;DHT22;1320;48.128;11.592;2024-01-15T14:53:20;2.70;99.90
2621;DHT22;1320;48.128;11.592;2024-01-15T14:55:47;2.60;99.90
2621;DHT22;1320;48.128;11.592;2024-01-15T14:58:12;2.60;99.90
2621;DHT22;1320;48.128;11.592;2024-01-15T15:00:38;2.60;99.90
2621;DHT22;1320;48.128;11.592;2024-01-15T15:03:04;2.60;99.90
2621;DHT22;1320;48.128;11.592;2024-01-15T15:05:29;2.60;99.90
2621;DHT22;1320;48.128;11.592;2024-01-15T15:07:55;2.70;99.90
2621;DHT22;1320;48.128;11.592;2024-01-15T15:10:21;2.70;99.90
2621;DHT22;1320;48.128;11.592;2024-01-15T15:12:47;2.70;99.90
2621;DHT22;1320;48.128;11.592;2024-01-15T15:15:13;2.70;99.90
2621;DHT22;1320;48.128;11.592;2024-01-15T15:17:39;2.60;99.90
2621;DHT22;1320;48.128;11.592;2024-01-15T15:20:08;2.60;99.90
2621;DHT22;1320;48.128;11.592;2024-01-15T15:22:34;2.60;99.90
2621;DHT22;1320;48.128;11.592;2024-01-15T15:25:00;2.50;99.90
2621;DHT22;1320;48.128;11.592;2024-01-15T15:27:25;2.50;99.90
2621;DHT22;1320;48.128;11.592;2024-01-15T15:29:53;2.50;99.90
2621;DHT22;1320;48.128;11.592;2024-01-15T15:32:19;2.50;99.90
2621;DHT22;1320;48.128;11.592;2024-01-15T15:34:45;2.50;99.90
2621;DHT22;1320;48.128;11.592;2024-01-15T15:37:11;2.50;99.90
2621;DHT22;1320;48.128;11.592;2024-01-15T15:39:37;2.50;99.90
2621;DHT22;1320;48.128;11.592;2024-01-15T15:42:03;2.40;99.90
2621;DHT22;1320;48.128;11.592;2024-01-15T15:44:29;2.40;99.90
2621;DHT22;1320;48.128;11.592;2024-01-15T15:46:54;2.40;99.90
2621;DHT22;1320;48.128;11.592;2024-01-15T15:49:20;2.40;99.90
2621;DHT22;1320;48.128;11.592;2024-01-15T15:51:46;2.30;99.90
2621;DHT22;1320;48.128;11.592;2024-01-15T15:54:11;2.40;99.90
2621;DHT22;1320;48.128;11.592;2024-01-15T15:56:37;2.50;99.90
2621;DHT22;1320;48.128;11.592;2024-01-15T15:59:07;2.60;99.90
2621;DHT22;1320;48.128;11.592;2024-01-15T16:01:35;2.60;99.90
2621;DHT22;1320;48.128;11.592;2024-01-15T16:04:00;2.60;99.90
2621;DHT22;1320;48.128;11.592;2024-01-15T16:06:26;2.50;99.90
2621;DHT22;1320;48.128;11.592;2024-01-15T16:08:52;2.50;99.90
2621;DHT22;1320;48.128;11.592;2024-01-15T16:11:17;2.50;99.90
2621;DHT22;1320;48.128;11.592;2024-01-15T16:13:43;2.50;99.90
2621;DHT22;1320;48.128;11.592;2024-01-15T16:16:09;2.40;99.90
2621;DHT22;1320;48.128;11.592;2024-01-15T16:18:35;2.30;99.90
2621;DHT22;1320;48.128;11.592;2024-01-15T16:21:01;2.20;99.90
2621;DHT22;1320;48.128;11.592;2024-01-15T16:23:27;2.20;99.90
2621;DHT22;1320;48.128;11.592;2024-01-15T16:25:52;2.20;99.90
2621;DHT22;1320;48.128;11.592;2024-01-15T16:28:18;2.20;99.90
2621;DHT22;1320;48.128;11.592;2024-01-15T16:30:44;2.10;99.90
2621;DHT22;1320;48.128;11.592;2024-01-15T16:33:09;2.20;99.90
2621;DHT22;1320;48.128;11.592;2024-01-15T16:35:35;2.30;99.90
2621;DHT22;1320;48.128;11.592;2024-01-15T16:38:00;2.30;99.90
2621;DHT22;1320;48.128;11.592;2024-01-15T16:40:26;2.30;99.90
2621;DHT22;1320;48.128;11.592;2024-01-15T16:42:52;2.20;99.90
2621;DHT22;1320;48.128;11.592;2024-01-15T16:45:18;2.20;99.90
2621;DHT22;1320;48.128;11.592;2024-01-15T16:47:43;2.20;99.90
2621;DHT22;1320;48.128;11.592;2024-01-15T16:50:09;2.20;99.90
2621;DHT22;1320;48.128;11.592;2024-01-15T16:52:35;2.30;99.90
2621;DHT22;1320;48.128;11.592;2024-01-15T16:55:01;2.20;99.90
2621;DHT22;1320;48.128;11.592;2024-01-15T16:57:27;2.10;99.90
2621;DHT22;1320;48.128;11.592;2024-01-15T16:59:52;2.10;99.90
2621;DHT22;1320;48.128;11.592;2024-01-15T17:02:18;2.10;99.90
2621;DHT22;1320;48.128;11.592;2024-01-15T17:04:43;2.10;99.90
2621;DHT22;1320;48.128;11.592;2024-01-15T17:07:09;2.20;99.90
2621;DHT22;1320;48.128;11.592;2024-01-15T17:09:35;2.20;99.90
2621;DHT22;1320;48.128;11.592;2024-01-15T17:12:02;2.20;99.90
2621;DHT22;1320;48.128;11.592;2024-01-15T17:14:28;2.20;99.90
2621;DHT22;1320;48.128;11.592;2024-01-15T17:16:54;2.10;99.90
2621;DHT22;1320;48.128;11.592;2024-01-15T17:19:20;2.10;99.90
2621;DHT22;1320;48.128;11.592;2024-01-15T17:21:46;2.00;99.90
2621;DHT22;1320;48.128;11.592;2024-01-15T17:24:12;2.00;99.90
2621;DHT22;1320;48.128;11.592;2024-01-15T17:26:38;2.00;99.90
2621;DHT22;1320;48.128;11.592;2024-01-15T17:29:04;2.00;99.90
2621;DHT22;1320;48.128;11.592;2024-01-15T17:31:30;2.00;99.90
2621;DHT22;1320;48.128;11.592;2024-01-15T17:33:55;2.00;99.90
2621;DHT22;1320;48.128;11.592;2024-01-15T17:36:21;2.00;99.90
2621;DHT22;1320;48.128;11.592;2024-01-15T17:38:47;2.10;99.90
2621;DHT22;1320;48.128;11.592;2024-01-15T17:41:13;2.20;99.90
2621;DHT22;1320;48.128;11.592;2024-01-15T17:43:39;2.20;99.90